sensor_id;sensor_type;location;lat;lon;timestamp;P1;durP1;ratioP1;P2;durP2;ratioP2
71490;SDS011;59307;50.060;9.150;2023-04-24T00:00:30;2.88;;;1.38;;
71490;SDS011;59307;50.060;9.150;2023-04-24T00:02:56;2.90;;;1.25;;
71490;SDS011;59307;50.060;9.150;2023-04-24T00:05:22;4.85;;;1.58;;
71490;SDS011;59307;50.060;9.150;2023-04-24T00:07:47;2.27;;;1.20;;
71490;SDS011;59307;50.060;9.150;2023-04-24T00:10:12;2.70;;;1.00;;
71490;SDS011;59307;50.060;9.150;2023-04-24T00:12:38;2.70;;;1.20;;
71490;SDS011;59307;50.060;9.150;2023-04-24T00:15:03;4.07;;;1.53;;
71490;SDS011;59307;50.060;9.150;2023-04-24T00:17:29;5.30;;;1.30;;
71490;SDS011;59307;50.060;9.150;2023-04-24T00:19:54;2.77;;;1.37;;
71490;SDS011;59307;50.060;9.150;2023-04-24T00:22:26;1.90;;;1.23;;
71490;SDS011;59307;50.060;9.150;2023-04-24T00:24:51;3.73;;;1.40;;
71490;SDS011;59307;50.060;9.150;2023-04-24T00:27:16;3.30;;;1.30;;
71490;SDS011;59307;50.060;9.150;2023-04-24T00:29:42;2.03;;;1.17;;
71490;SDS011;59307;50.060;9.150;2023-04-24T00:32:07;2.60;;;1.43;;
71490;SDS011;59307;50.060;9.150;2023-04-24T00:34:32;1.50;;;1.10;;
71490;SDS011;59307;50.060;9.150;2023-04-24T00:36:57;2.50;;;1.13;;
71490;SDS011;59307;50.060;9.150;2023-04-24T00:39:22;2.63;;;1.00;;
71490;SDS011;59307;50.060;9.150;2023-04-24T00:41:48;1.80;;;1.00;;
71490;SDS011;59307;50.060;9.150;2023-04-24T00:44:13;3.57;;;1.43;;
71490;SDS011;59307;50.060;9.150;2023-04-24T00:46:39;2.07;;;1.10;;
71490;SDS011;59307;50.060;9.150;2023-04-24T00:49:04;2.10;;;1.40;;
71490;SDS011;59307;50.060;9.150;2023-04-24T00:51:29;3.45;;;1.40;;
71490;SDS011;59307;50.060;9.150;2023-04-24T00:53:55;1.83;;;1.20;;
71490;SDS011;59307;50.060;9.150;2023-04-24T00:56:21;3.20;;;1.20;;
71490;SDS011;59307;50.060;9.150;2023-04-24T00:58:46;2.88;;;1.00;;
71490;SDS011;59307;50.060;9.150;2023-04-24T01:01:11;3.53;;;1.37;;
71490;SDS011;59307;50.060;9.150;2023-04-24T01:03:37;2.43;;;1.13;;
71490;SDS011;59307;50.060;9.150;2023-04-24T01:06:02;3.23;;;1.30;;
71490;SDS011;59307;50.060;9.150;2023-04-24T01:08:27;2.43;;;1.30;;
71490;SDS011;59307;50.060;9.150;2023-04-24T01:10:53;2.50;;;1.10;;
71490;SDS011;59307;50.060;9.150;2023-04-24T01:13:19;2.15;;;1.25;;
71490;SDS011;59307;50.060;9.150;2023-04-24T01:15:45;2.88;;;1.20;;
71490;SDS011;59307;50.060;9.150;2023-04-24T01:18:10;3.00;;;1.20;;
71490;SDS011;59307;50.060;9.150;2023-04-24T01:20:35;2.70;;;1.33;;
71490;SDS011;59307;50.060;9.150;2023-04-24T01:23:01;4.28;;;1.25;;
71490;SDS011;59307;50.060;9.150;2023-04-24T01:25:27;3.53;;;1.20;;
71490;SDS011;59307;50.060;9.150;2023-04-24T01:27:53;5.13;;;1.33;;
71490;SDS011;59307;50.060;9.150;2023-04-24T01:30:18;3.03;;;1.10;;
71490;SDS011;59307;50.060;9.150;2023-04-24T01:32:43;2.37;;;1.10;;
71490;SDS011;59307;50.060;9.150;2023-04-24T01:35:09;3.15;;;1.25;;
71490;SDS011;59307;50.060;9.150;2023-04-24T01:37:34;6.03;;;1.40;;
71490;SDS011;59307;50.060;9.150;2023-04-24T01:40:02;5.82;;;1.27;;
71490;SDS011;59307;50.060;9.150;2023-04-24T01:42:28;2.40;;;1.00;;
71490;SDS011;59307;50.060;9.150;2023-04-24T01:44:54;2.38;;;1.27;;
71490;SDS011;59307;50.060;9.150;2023-04-24T01:47:19;2.37;;;1.03;;
71490;SDS011;59307;50.060;9.150;2023-04-24T01:49:45;2.57;;;1.10;;
71490;SDS011;59307;50.060;9.150;2023-04-24T01:52:10;3.05;;;1.10;;
71490;SDS011;59307;50.060;9.150;2023-04-24T01:54:35;4.07;;;1.13;;
71490;SDS011;59307;50.060;9.150;2023-04-24T01:57:01;1.90;;;1.10;;
71490;SDS011;59307;50.060;9.150;2023-04-24T01:59:27;2.40;;;1.03;;
71490;SDS011;59307;50.060;9.150;2023-04-24T02:01:53;3.80;;;1.27;;
71490;SDS011;59307;50.060;9.150;2023-04-24T02:04:18;4.00;;;0.90;;
71490;SDS011;59307;50.060;9.150;2023-04-24T02:06:43;2.83;;;1.00;;
71490;SDS011;59307;50.060;9.150;2023-04-24T02:09:08;1.80;;;1.00;;
71490;SDS011;59307;50.060;9.150;2023-04-24T02:11:33;2.93;;;1.20;;
71490;SDS011;59307;50.060;9.150;2023-04-24T02:13:59;3.90;;;1.33;;
71490;SDS011;59307;50.060;9.150;2023-04-24T02:16:24;2.13;;;1.10;;
71490;SDS011;59307;50.060;9.150;2023-04-24T02:18:49;3.80;;;1.10;;
71490;SDS011;59307;50.060;9.150;2023-04-24T02:21:14;3.07;;;1.00;;
71490;SDS011;59307;50.060;9.150;2023-04-24T02:23:40;3.13;;;1.10;;
71490;SDS011;59307;50.060;9.150;2023-04-24T02:26:05;2.87;;;1.37;;
71490;SDS011;59307;50.060;9.150;2023-04-24T02:28:30;3.13;;;0.87;;
71490;SDS011;59307;50.060;9.150;2023-04-24T02:30:55;2.80;;;1.00;;
71490;SDS011;59307;50.060;9.150;2023-04-24T02:33:20;4.23;;;1.10;;
71490;SDS011;59307;50.060;9.150;2023-04-24T02:35:46;3.10;;;1.10;;
71490;SDS011;59307;50.060;9.150;2023-04-24T02:38:11;2.03;;;1.00;;
71490;SDS011;59307;50.060;9.150;2023-04-24T02:40:36;3.13;;;1.13;;
71490;SDS011;59307;50.060;9.150;2023-04-24T02:43:01;2.73;;;1.00;;
71490;SDS011;59307;50.060;9.150;2023-04-24T02:45:26;3.37;;;1.10;;
71490;SDS011;59307;50.060;9.150;2023-04-24T02:47:52;1.80;;;1.00;;
71490;SDS011;59307;50.060;9.150;2023-04-24T02:50:17;3.77;;;1.13;;
71490;SDS011;59307;50.060;9.150;2023-04-24T02:52:42;4.60;;;1.10;;
71490;SDS011;59307;50.060;9.150;2023-04-24T02:55:07;2.20;;;0.90;;
71490;SDS011;59307;50.060;9.150;2023-04-24T02:57:33;3.72;;;1.33;;
71490;SDS011;59307;50.060;9.150;2023-04-24T02:59:58;3.00;;;1.13;;
71490;SDS011;59307;50.060;9.150;2023-04-24T03:02:23;1.97;;;1.07;;
71490;SDS011;59307;50.060;9.150;2023-04-24T03:04:48;3.57;;;1.47;;
71490;SDS011;59307;50.060;9.150;2023-04-24T03:07:13;2.10;;;0.97;;
71490;SDS011;59307;50.060;9.150;2023-04-24T03:09:39;3.33;;;1.00;;
71490;SDS011;59307;50.060;9.150;2023-04-24T03:12:04;3.57;;;1.10;;
71490;SDS011;59307;50.060;9.150;2023-04-24T03:14:29;5.30;;;1.20;;
71490;SDS011;59307;50.060;9.150;2023-04-24T03:16:56;2.63;;;1.10;;
71490;SDS011;59307;50.060;9.150;2023-04-24T03:19:21;3.93;;;1.63;;
71490;SDS011;59307;50.060;9.150;2023-04-24T03:21:46;2.50;;;1.07;;
71490;SDS011;59307;50.060;9.150;2023-04-24T03:24:12;2.73;;;1.27;;
71490;SDS011;59307;50.060;9.150;2023-04-24T03:26:37;2.97;;;1.00;;
71490;SDS011;59307;50.060;9.150;2023-04-24T03:29:02;2.37;;;1.03;;
71490;SDS011;59307;50.060;9.150;2023-04-24T03:31:27;2.93;;;1.00;;
71490;SDS011;59307;50.060;9.150;2023-04-24T03:33:52;2.40;;;1.00;;
71490;SDS011;59307;50.060;9.150;2023-04-24T03:36:17;3.30;;;1.00;;
71490;SDS011;59307;50.060;9.150;2023-04-24T03:38:44;2.97;;;1.27;;
71490;SDS011;59307;50.060;9.150;2023-04-24T03:41:09;4.90;;;1.30;;
71490;SDS011;59307;50.060;9.150;2023-04-24T03:43:34;1.97;;;1.10;;
71490;SDS011;59307;50.060;9.150;2023-04-24T03:46:00;2.93;;;1.07;;
71490;SDS011;59307;50.060;9.150;2023-04-24T03:48:25;1.83;;;1.00;;
71490;SDS011;59307;50.060;9.150;2023-04-24T03:50:50;2.43;;;1.10;;
71490;SDS011;59307;50.060;9.150;2023-04-24T03:53:15;3.13;;;1.20;;
71490;SDS011;59307;50.060;9.150;2023-04-24T03:55:40;3.87;;;1.17;;
71490;SDS011;59307;50.060;9.150;2023-04-24T03:58:06;3.50;;;1.10;;
71490;SDS011;59307;50.060;9.150;2023-04-24T04:00:31;3.20;;;1.07;;
71490;SDS011;59307;50.060;9.150;2023-04-24T04:02:57;5.57;;;1.40;;
71490;SDS011;59307;50.060;9.150;2023-04-24T04:05:22;1.80;;;1.10;;
71490;SDS011;59307;50.060;9.150;2023-04-24T04:07:47;6.40;;;1.30;;
71490;SDS011;59307;50.060;9.150;2023-04-24T04:10:12;1.90;;;1.10;;
71490;SDS011;59307;50.060;9.150;2023-04-24T04:12:38;3.55;;;1.40;;
71490;SDS011;59307;50.060;9.150;2023-04-24T04:15:03;3.50;;;1.40;;
71490;SDS011;59307;50.060;9.150;2023-04-24T04:17:29;6.43;;;1.50;;
71490;SDS011;59307;50.060;9.150;2023-04-24T04:19:54;2.70;;;1.30;;
71490;SDS011;59307;50.060;9.150;2023-04-24T04:22:20;4.05;;;1.40;;
71490;SDS011;59307;50.060;9.150;2023-04-24T04:24:45;4.20;;;1.47;;
71490;SDS011;59307;50.060;9.150;2023-04-24T04:27:11;5.23;;;1.10;;
71490;SDS011;59307;50.060;9.150;2023-04-24T04:29:37;2.38;;;1.30;;
71490;SDS011;59307;50.060;9.150;2023-04-24T04:32:03;3.20;;;1.30;;
71490;SDS011;59307;50.060;9.150;2023-04-24T04:34:28;2.50;;;1.40;;
71490;SDS011;59307;50.060;9.150;2023-04-24T04:36:54;1.90;;;1.38;;
71490;SDS011;59307;50.060;9.150;2023-04-24T04:39:19;10.23;;;1.50;;
71490;SDS011;59307;50.060;9.150;2023-04-24T04:41:45;2.47;;;1.20;;
71490;SDS011;59307;50.060;9.150;2023-04-24T04:44:13;2.20;;;1.55;;
71490;SDS011;59307;50.060;9.150;2023-04-24T04:46:39;3.20;;;1.50;;
71490;SDS011;59307;50.060;9.150;2023-04-24T04:49:04;1.90;;;1.50;;
71490;SDS011;59307;50.060;9.150;2023-04-24T04:51:29;2.03;;;1.40;;
71490;SDS011;59307;50.060;9.150;2023-04-24T04:53:55;2.20;;;1.60;;
71490;SDS011;59307;50.060;9.150;2023-04-24T04:56:21;2.63;;;1.80;;
71490;SDS011;59307;50.060;9.150;2023-04-24T04:58:46;2.50;;;1.63;;
71490;SDS011;59307;50.060;9.150;2023-04-24T05:01:12;3.43;;;1.60;;
71490;SDS011;59307;50.060;9.150;2023-04-24T05:03:37;5.53;;;1.83;;
71490;SDS011;59307;50.060;9.150;2023-04-24T05:06:02;9.17;;;1.90;;
71490;SDS011;59307;50.060;9.150;2023-04-24T05:08:27;2.22;;;1.50;;
71490;SDS011;59307;50.060;9.150;2023-04-24T05:10:53;2.70;;;1.60;;
71490;SDS011;59307;50.060;9.150;2023-04-24T05:13:18;5.60;;;1.57;;
71490;SDS011;59307;50.060;9.150;2023-04-24T05:15:43;2.93;;;1.63;;
71490;SDS011;59307;50.060;9.150;2023-04-24T05:18:08;3.33;;;1.80;;
71490;SDS011;59307;50.060;9.150;2023-04-24T05:20:33;3.17;;;2.00;;
71490;SDS011;59307;50.060;9.150;2023-04-24T05:22:59;4.30;;;2.43;;
71490;SDS011;59307;50.060;9.150;2023-04-24T05:25:24;4.57;;;2.00;;
71490;SDS011;59307;50.060;9.150;2023-04-24T05:27:49;3.80;;;1.80;;
71490;SDS011;59307;50.060;9.150;2023-04-24T05:30:14;4.20;;;1.83;;
71490;SDS011;59307;50.060;9.150;2023-04-24T05:32:40;3.80;;;1.97;;
71490;SDS011;59307;50.060;9.150;2023-04-24T05:35:05;3.10;;;2.20;;
71490;SDS011;59307;50.060;9.150;2023-04-24T05:37:31;4.25;;;2.17;;
71490;SDS011;59307;50.060;9.150;2023-04-24T05:39:56;5.03;;;1.93;;
71490;SDS011;59307;50.060;9.150;2023-04-24T05:42:21;3.83;;;2.20;;
71490;SDS011;59307;50.060;9.150;2023-04-24T05:44:47;3.47;;;2.07;;
71490;SDS011;59307;50.060;9.150;2023-04-24T05:47:12;4.20;;;2.13;;
71490;SDS011;59307;50.060;9.150;2023-04-24T05:49:37;4.70;;;2.47;;
71490;SDS011;59307;50.060;9.150;2023-04-24T05:52:02;4.23;;;2.17;;
71490;SDS011;59307;50.060;9.150;2023-04-24T05:54:29;3.58;;;2.15;;
71490;SDS011;59307;50.060;9.150;2023-04-24T05:56:54;3.40;;;1.97;;
71490;SDS011;59307;50.060;9.150;2023-04-24T05:59:20;4.18;;;2.30;;
71490;SDS011;59307;50.060;9.150;2023-04-24T06:01:45;4.53;;;2.30;;
71490;SDS011;59307;50.060;9.150;2023-04-24T06:04:11;5.30;;;2.40;;
71490;SDS011;59307;50.060;9.150;2023-04-24T06:06:38;3.95;;;2.25;;
71490;SDS011;59307;50.060;9.150;2023-04-24T06:09:03;7.93;;;2.20;;
71490;SDS011;59307;50.060;9.150;2023-04-24T06:11:28;3.33;;;2.10;;
71490;SDS011;59307;50.060;9.150;2023-04-24T06:13:53;3.53;;;2.30;;
71490;SDS011;59307;50.060;9.150;2023-04-24T06:16:19;4.60;;;2.20;;
71490;SDS011;59307;50.060;9.150;2023-04-24T06:18:44;4.43;;;2.53;;
71490;SDS011;59307;50.060;9.150;2023-04-24T06:21:11;3.78;;;2.13;;
71490;SDS011;59307;50.060;9.150;2023-04-24T06:23:37;6.13;;;2.43;;
71490;SDS011;59307;50.060;9.150;2023-04-24T06:26:02;3.90;;;2.53;;
71490;SDS011;59307;50.060;9.150;2023-04-24T06:28:27;3.93;;;2.20;;
71490;SDS011;59307;50.060;9.150;2023-04-24T06:30:52;3.47;;;2.30;;
71490;SDS011;59307;50.060;9.150;2023-04-24T06:33:17;4.33;;;2.33;;
71490;SDS011;59307;50.060;9.150;2023-04-24T06:35:43;3.47;;;2.27;;
71490;SDS011;59307;50.060;9.150;2023-04-24T06:38:08;6.00;;;2.37;;
71490;SDS011;59307;50.060;9.150;2023-04-24T06:40:33;4.17;;;2.43;;
71490;SDS011;59307;50.060;9.150;2023-04-24T06:42:58;4.27;;;1.90;;
71490;SDS011;59307;50.060;9.150;2023-04-24T06:45:25;5.35;;;2.17;;
71490;SDS011;59307;50.060;9.150;2023-04-24T06:47:50;5.13;;;2.10;;
71490;SDS011;59307;50.060;9.150;2023-04-24T06:50:15;4.07;;;2.23;;
71490;SDS011;59307;50.060;9.150;2023-04-24T06:52:41;3.33;;;2.10;;
71490;SDS011;59307;50.060;9.150;2023-04-24T06:55:06;4.30;;;2.40;;
71490;SDS011;59307;50.060;9.150;2023-04-24T06:57:31;5.33;;;2.07;;
71490;SDS011;59307;50.060;9.150;2023-04-24T06:59:57;3.97;;;2.23;;
71490;SDS011;59307;50.060;9.150;2023-04-24T07:02:22;4.27;;;2.00;;
71490;SDS011;59307;50.060;9.150;2023-04-24T07:04:47;3.60;;;2.30;;
71490;SDS011;59307;50.060;9.150;2023-04-24T07:07:13;4.23;;;2.30;;
71490;SDS011;59307;50.060;9.150;2023-04-24T07:09:39;5.50;;;2.50;;
71490;SDS011;59307;50.060;9.150;2023-04-24T07:12:06;3.50;;;2.10;;
71490;SDS011;59307;50.060;9.150;2023-04-24T07:14:32;4.15;;;2.40;;
71490;SDS011;59307;50.060;9.150;2023-04-24T07:16:57;3.87;;;2.37;;
71490;SDS011;59307;50.060;9.150;2023-04-24T07:19:22;5.37;;;2.50;;
71490;SDS011;59307;50.060;9.150;2023-04-24T07:21:47;3.80;;;2.30;;
71490;SDS011;59307;50.060;9.150;2023-04-24T07:24:13;4.00;;;2.10;;
71490;SDS011;59307;50.060;9.150;2023-04-24T07:26:38;4.17;;;2.47;;
71490;SDS011;59307;50.060;9.150;2023-04-24T07:29:04;4.78;;;2.55;;
71490;SDS011;59307;50.060;9.150;2023-04-24T07:31:30;4.87;;;2.70;;
71490;SDS011;59307;50.060;9.150;2023-04-24T07:33:55;4.93;;;2.37;;
71490;SDS011;59307;50.060;9.150;2023-04-24T07:36:22;4.35;;;2.75;;
71490;SDS011;59307;50.060;9.150;2023-04-24T07:38:49;5.38;;;2.60;;
71490;SDS011;59307;50.060;9.150;2023-04-24T07:41:14;4.17;;;2.70;;
71490;SDS011;59307;50.060;9.150;2023-04-24T07:43:39;4.60;;;2.60;;
71490;SDS011;59307;50.060;9.150;2023-04-24T07:46:05;5.27;;;3.07;;
71490;SDS011;59307;50.060;9.150;2023-04-24T07:48:30;7.13;;;2.72;;
71490;SDS011;59307;50.060;9.150;2023-04-24T07:50:56;4.63;;;2.63;;
71490;SDS011;59307;50.060;9.150;2023-04-24T07:53:21;3.40;;;2.50;;
71490;SDS011;59307;50.060;9.150;2023-04-24T07:55:46;4.30;;;2.50;;
71490;SDS011;59307;50.060;9.150;2023-04-24T07:58:11;5.37;;;3.10;;
71490;SDS011;59307;50.060;9.150;2023-04-24T08:00:36;3.70;;;2.47;;
71490;SDS011;59307;50.060;9.150;2023-04-24T08:03:02;4.17;;;2.20;;
71490;SDS011;59307;50.060;9.150;2023-04-24T08:05:27;3.30;;;2.10;;
71490;SDS011;59307;50.060;9.150;2023-04-24T08:07:53;4.05;;;2.65;;
71490;SDS011;59307;50.060;9.150;2023-04-24T08:10:18;4.77;;;2.60;;
71490;SDS011;59307;50.060;9.150;2023-04-24T08:12:44;4.47;;;2.53;;
71490;SDS011;59307;50.060;9.150;2023-04-24T08:15:09;5.73;;;2.60;;
71490;SDS011;59307;50.060;9.150;2023-04-24T08:17:34;4.27;;;2.37;;
71490;SDS011;59307;50.060;9.150;2023-04-24T08:20:00;4.85;;;2.50;;
71490;SDS011;59307;50.060;9.150;2023-04-24T08:22:29;5.47;;;2.53;;
71490;SDS011;59307;50.060;9.150;2023-04-24T08:24:54;3.92;;;2.20;;
71490;SDS011;59307;50.060;9.150;2023-04-24T08:27:21;3.97;;;2.33;;
71490;SDS011;59307;50.060;9.150;2023-04-24T08:29:47;6.07;;;2.70;;
71490;SDS011;59307;50.060;9.150;2023-04-24T08:32:12;5.77;;;3.00;;
71490;SDS011;59307;50.060;9.150;2023-04-24T08:34:37;5.27;;;2.40;;
71490;SDS011;59307;50.060;9.150;2023-04-24T08:37:02;4.00;;;2.53;;
71490;SDS011;59307;50.060;9.150;2023-04-24T08:39:27;4.77;;;2.50;;
71490;SDS011;59307;50.060;9.150;2023-04-24T08:41:53;4.80;;;2.60;;
71490;SDS011;59307;50.060;9.150;2023-04-24T08:44:18;5.80;;;2.60;;
71490;SDS011;59307;50.060;9.150;2023-04-24T08:46:44;3.97;;;2.80;;
71490;SDS011;59307;50.060;9.150;2023-04-24T08:49:11;4.55;;;2.70;;
71490;SDS011;59307;50.060;9.150;2023-04-24T08:51:37;5.38;;;2.60;;
71490;SDS011;59307;50.060;9.150;2023-04-24T08:54:02;5.73;;;2.67;;
71490;SDS011;59307;50.060;9.150;2023-04-24T08:56:28;7.50;;;2.90;;
71490;SDS011;59307;50.060;9.150;2023-04-24T08:58:55;6.03;;;2.85;;
71490;SDS011;59307;50.060;9.150;2023-04-24T09:01:21;4.27;;;2.47;;
71490;SDS011;59307;50.060;9.150;2023-04-24T09:03:48;4.60;;;2.50;;
71490;SDS011;59307;50.060;9.150;2023-04-24T09:06:13;6.15;;;3.45;;
71490;SDS011;59307;50.060;9.150;2023-04-24T09:08:39;5.50;;;2.78;;
71490;SDS011;59307;50.060;9.150;2023-04-24T09:11:05;4.93;;;2.30;;
71490;SDS011;59307;50.060;9.150;2023-04-24T09:13:32;7.75;;;2.50;;
71490;SDS011;59307;50.060;9.150;2023-04-24T09:15:58;5.00;;;2.60;;
71490;SDS011;59307;50.060;9.150;2023-04-24T09:18:25;3.60;;;1.98;;
71490;SDS011;59307;50.060;9.150;2023-04-24T09:21:01;4.53;;;2.30;;
71490;SDS011;59307;50.060;9.150;2023-04-24T09:23:27;4.32;;;2.40;;
71490;SDS011;59307;50.060;9.150;2023-04-24T09:25:56;4.57;;;2.03;;
71490;SDS011;59307;50.060;9.150;2023-04-24T09:28:25;4.43;;;2.00;;
71490;SDS011;59307;50.060;9.150;2023-04-24T09:31:01;3.70;;;2.20;;
71490;SDS011;59307;50.060;9.150;2023-04-24T09:33:26;3.92;;;2.20;;
71490;SDS011;59307;50.060;9.150;2023-04-24T09:35:52;3.20;;;2.00;;
71490;SDS011;59307;50.060;9.150;2023-04-24T09:38:17;4.87;;;2.10;;
71490;SDS011;59307;50.060;9.150;2023-04-24T09:40:43;3.93;;;2.43;;
71490;SDS011;59307;50.060;9.150;2023-04-24T09:43:11;4.18;;;2.28;;
71490;SDS011;59307;50.060;9.150;2023-04-24T09:45:37;4.38;;;2.50;;
71490;SDS011;59307;50.060;9.150;2023-04-24T09:48:03;4.97;;;2.50;;
71490;SDS011;59307;50.060;9.150;2023-04-24T09:50:30;3.33;;;2.17;;
71490;SDS011;59307;50.060;9.150;2023-04-24T09:52:57;4.80;;;2.10;;
71490;SDS011;59307;50.060;9.150;2023-04-24T09:55:23;3.88;;;2.50;;
71490;SDS011;59307;50.060;9.150;2023-04-24T09:57:49;4.23;;;2.40;;
71490;SDS011;59307;50.060;9.150;2023-04-24T10:00:19;5.90;;;2.50;;
71490;SDS011;59307;50.060;9.150;2023-04-24T10:02:49;4.75;;;2.15;;
71490;SDS011;59307;50.060;9.150;2023-04-24T10:05:14;4.75;;;2.42;;
71490;SDS011;59307;50.060;9.150;2023-04-24T10:07:40;4.30;;;2.60;;
71490;SDS011;59307;50.060;9.150;2023-04-24T10:10:05;3.87;;;2.10;;
71490;SDS011;59307;50.060;9.150;2023-04-24T10:12:31;4.35;;;2.28;;
71490;SDS011;59307;50.060;9.150;2023-04-24T10:14:56;3.50;;;2.10;;
71490;SDS011;59307;50.060;9.150;2023-04-24T10:17:22;3.88;;;2.22;;
71490;SDS011;59307;50.060;9.150;2023-04-24T10:19:48;5.23;;;3.03;;
71490;SDS011;59307;50.060;9.150;2023-04-24T10:22:14;3.55;;;2.10;;
71490;SDS011;59307;50.060;9.150;2023-04-24T10:24:40;3.78;;;2.20;;
71490;SDS011;59307;50.060;9.150;2023-04-24T10:27:06;3.80;;;2.07;;
71490;SDS011;59307;50.060;9.150;2023-04-24T10:29:32;3.08;;;1.98;;
71490;SDS011;59307;50.060;9.150;2023-04-24T10:31:59;3.22;;;1.90;;
71490;SDS011;59307;50.060;9.150;2023-04-24T10:34:24;4.03;;;1.80;;
71490;SDS011;59307;50.060;9.150;2023-04-24T10:36:53;4.07;;;2.07;;
71490;SDS011;59307;50.060;9.150;2023-04-24T10:39:19;3.50;;;2.10;;
71490;SDS011;59307;50.060;9.150;2023-04-24T10:41:45;3.50;;;2.50;;
71490;SDS011;59307;50.060;9.150;2023-04-24T10:44:14;4.03;;;2.42;;
71490;SDS011;59307;50.060;9.150;2023-04-24T10:46:42;3.58;;;2.30;;
71490;SDS011;59307;50.060;9.150;2023-04-24T10:49:08;3.80;;;2.50;;
71490;SDS011;59307;50.060;9.150;2023-04-24T10:51:49;3.67;;;2.50;;
71490;SDS011;59307;50.060;9.150;2023-04-24T10:54:28;3.88;;;2.47;;
71490;SDS011;59307;50.060;9.150;2023-04-24T10:56:56;3.50;;;2.50;;
71490;SDS011;59307;50.060;9.150;2023-04-24T10:59:38;4.00;;;2.40;;
71490;SDS011;59307;50.060;9.150;2023-04-24T11:02:03;4.17;;;2.30;;
71490;SDS011;59307;50.060;9.150;2023-04-24T11:04:31;4.07;;;2.58;;
71490;SDS011;59307;50.060;9.150;2023-04-24T11:06:57;4.87;;;2.80;;
71490;SDS011;59307;50.060;9.150;2023-04-24T11:09:22;5.30;;;3.00;;
71490;SDS011;59307;50.060;9.150;2023-04-24T11:11:51;6.68;;;3.33;;
71490;SDS011;59307;50.060;9.150;2023-04-24T11:14:27;6.07;;;3.20;;
71490;SDS011;59307;50.060;9.150;2023-04-24T11:16:52;6.80;;;3.23;;
71490;SDS011;59307;50.060;9.150;2023-04-24T11:19:20;5.50;;;3.30;;
71490;SDS011;59307;50.060;9.150;2023-04-24T11:22:01;6.93;;;2.90;;
71490;SDS011;59307;50.060;9.150;2023-04-24T11:24:28;5.28;;;3.00;;
71490;SDS011;59307;50.060;9.150;2023-04-24T11:27:15;3.97;;;2.67;;
71490;SDS011;59307;50.060;9.150;2023-04-24T11:32:14;4.30;;;2.60;;
71490;SDS011;59307;50.060;9.150;2023-04-24T11:34:39;7.72;;;2.58;;
71490;SDS011;59307;50.060;9.150;2023-04-24T11:37:05;5.70;;;2.90;;
71490;SDS011;59307;50.060;9.150;2023-04-24T11:39:36;5.27;;;2.80;;
71490;SDS011;59307;50.060;9.150;2023-04-24T11:42:02;4.63;;;2.72;;
71490;SDS011;59307;50.060;9.150;2023-04-24T11:44:27;4.85;;;3.03;;
71490;SDS011;59307;50.060;9.150;2023-04-24T11:46:55;7.45;;;3.20;;
71490;SDS011;59307;50.060;9.150;2023-04-24T11:49:20;5.80;;;3.00;;
71490;SDS011;59307;50.060;9.150;2023-04-24T11:51:46;5.20;;;3.20;;
71490;SDS011;59307;50.060;9.150;2023-04-24T11:54:11;4.50;;;2.67;;
71490;SDS011;59307;50.060;9.150;2023-04-24T11:56:36;5.63;;;3.33;;
71490;SDS011;59307;50.060;9.150;2023-04-24T11:59:03;4.63;;;2.40;;
71490;SDS011;59307;50.060;9.150;2023-04-24T12:01:28;4.55;;;2.47;;
71490;SDS011;59307;50.060;9.150;2023-04-24T12:03:58;3.90;;;2.33;;
71490;SDS011;59307;50.060;9.150;2023-04-24T12:06:24;5.25;;;2.08;;
71490;SDS011;59307;50.060;9.150;2023-04-24T12:08:50;3.33;;;2.17;;
71490;SDS011;59307;50.060;9.150;2023-04-24T12:11:17;2.13;;;1.80;;
71490;SDS011;59307;50.060;9.150;2023-04-24T12:13:43;3.17;;;1.80;;
71490;SDS011;59307;50.060;9.150;2023-04-24T12:16:08;3.42;;;2.00;;
71490;SDS011;59307;50.060;9.150;2023-04-24T12:18:34;3.60;;;1.60;;
71490;SDS011;59307;50.060;9.150;2023-04-24T12:23:43;1.75;;;1.48;;
71490;SDS011;59307;50.060;9.150;2023-04-24T12:26:09;2.20;;;1.65;;
71490;SDS011;59307;50.060;9.150;2023-04-24T12:28:35;3.17;;;1.97;;
71490;SDS011;59307;50.060;9.150;2023-04-24T12:31:01;2.42;;;1.50;;
71490;SDS011;59307;50.060;9.150;2023-04-24T12:33:26;2.30;;;1.57;;
71490;SDS011;59307;50.060;9.150;2023-04-24T12:35:52;2.20;;;1.40;;
71490;SDS011;59307;50.060;9.150;2023-04-24T12:38:21;3.08;;;1.30;;
71490;SDS011;59307;50.060;9.150;2023-04-24T12:40:46;2.95;;;1.60;;
71490;SDS011;59307;50.060;9.150;2023-04-24T12:45:40;2.87;;;1.50;;
71490;SDS011;59307;50.060;9.150;2023-04-24T12:48:05;1.70;;;1.30;;
71490;SDS011;59307;50.060;9.150;2023-04-24T12:50:30;2.00;;;1.23;;
71490;SDS011;59307;50.060;9.150;2023-04-24T12:52:56;2.47;;;1.53;;
71490;SDS011;59307;50.060;9.150;2023-04-24T12:55:21;2.10;;;1.47;;
71490;SDS011;59307;50.060;9.150;2023-04-24T12:57:46;2.30;;;1.53;;
71490;SDS011;59307;50.060;9.150;2023-04-24T13:00:11;2.50;;;1.53;;
71490;SDS011;59307;50.060;9.150;2023-04-24T13:02:37;3.15;;;1.65;;
71490;SDS011;59307;50.060;9.150;2023-04-24T13:05:02;2.77;;;1.90;;
71490;SDS011;59307;50.060;9.150;2023-04-24T13:07:27;4.00;;;2.10;;
71490;SDS011;59307;50.060;9.150;2023-04-24T13:09:53;3.43;;;1.77;;
71490;SDS011;59307;50.060;9.150;2023-04-24T13:12:19;3.63;;;1.48;;
71490;SDS011;59307;50.060;9.150;2023-04-24T13:14:45;3.20;;;1.77;;
71490;SDS011;59307;50.060;9.150;2023-04-24T13:17:10;2.90;;;1.80;;
71490;SDS011;59307;50.060;9.150;2023-04-24T13:19:37;3.63;;;1.92;;
71490;SDS011;59307;50.060;9.150;2023-04-24T13:22:03;7.03;;;2.07;;
71490;SDS011;59307;50.060;9.150;2023-04-24T13:24:28;3.58;;;2.05;;
71490;SDS011;59307;50.060;9.150;2023-04-24T13:26:53;4.33;;;2.60;;
71490;SDS011;59307;50.060;9.150;2023-04-24T13:29:18;4.43;;;2.17;;
71490;SDS011;59307;50.060;9.150;2023-04-24T13:31:45;5.18;;;2.50;;
71490;SDS011;59307;50.060;9.150;2023-04-24T13:34:10;4.23;;;2.43;;
71490;SDS011;59307;50.060;9.150;2023-04-24T13:36:36;4.43;;;2.30;;
71490;SDS011;59307;50.060;9.150;2023-04-24T13:39:01;5.30;;;2.40;;
71490;SDS011;59307;50.060;9.150;2023-04-24T13:41:26;4.50;;;2.42;;
71490;SDS011;59307;50.060;9.150;2023-04-24T13:43:51;5.50;;;2.70;;
71490;SDS011;59307;50.060;9.150;2023-04-24T13:46:17;6.40;;;2.77;;
71490;SDS011;59307;50.060;9.150;2023-04-24T13:48:42;4.30;;;2.43;;
71490;SDS011;59307;50.060;9.150;2023-04-24T13:51:07;5.63;;;2.50;;
71490;SDS011;59307;50.060;9.150;2023-04-24T13:53:33;4.53;;;2.20;;
71490;SDS011;59307;50.060;9.150;2023-04-24T13:56:01;4.40;;;2.63;;
71490;SDS011;59307;50.060;9.150;2023-04-24T13:58:26;5.03;;;2.60;;
71490;SDS011;59307;50.060;9.150;2023-04-24T14:00:51;4.63;;;2.70;;
71490;SDS011;59307;50.060;9.150;2023-04-24T14:03:17;6.00;;;2.67;;
71490;SDS011;59307;50.060;9.150;2023-04-24T14:05:42;7.20;;;2.90;;
71490;SDS011;59307;50.060;9.150;2023-04-24T14:08:07;8.07;;;2.90;;
71490;SDS011;59307;50.060;9.150;2023-04-24T14:10:32;5.07;;;3.27;;
71490;SDS011;59307;50.060;9.150;2023-04-24T14:12:57;4.40;;;2.80;;
71490;SDS011;59307;50.060;9.150;2023-04-24T14:15:23;6.03;;;2.90;;
71490;SDS011;59307;50.060;9.150;2023-04-24T14:17:48;5.60;;;2.70;;
71490;SDS011;59307;50.060;9.150;2023-04-24T14:20:14;7.73;;;2.90;;
71490;SDS011;59307;50.060;9.150;2023-04-24T14:22:40;5.57;;;3.00;;
71490;SDS011;59307;50.060;9.150;2023-04-24T14:25:06;7.00;;;2.80;;
71490;SDS011;59307;50.060;9.150;2023-04-24T14:27:31;5.18;;;2.85;;
71490;SDS011;59307;50.060;9.150;2023-04-24T14:29:56;6.40;;;3.10;;
71490;SDS011;59307;50.060;9.150;2023-04-24T14:32:22;8.47;;;3.70;;
71490;SDS011;59307;50.060;9.150;2023-04-24T14:34:47;8.00;;;3.60;;
71490;SDS011;59307;50.060;9.150;2023-04-24T14:37:12;6.93;;;3.53;;
71490;SDS011;59307;50.060;9.150;2023-04-24T14:39:37;6.30;;;3.43;;
71490;SDS011;59307;50.060;9.150;2023-04-24T14:42:02;8.93;;;3.60;;
71490;SDS011;59307;50.060;9.150;2023-04-24T14:44:28;8.23;;;3.17;;
71490;SDS011;59307;50.060;9.150;2023-04-24T14:46:53;5.57;;;3.10;;